Time;durP1;ratioP1;P1;durP2;ratioP2;P2;SDS_P1;SDS_P2;PMS_P1;PMS_P2;Temp;Humidity;BMP_temperature;BMP_pressure;BME280_temperature;BME280_humidity;BME280_pressure;Samples;Min_cycle;Max_cycle;Signal;HPM_P1;HPM_P2
2021/04/07 00:01:23;;;;;;;;;;;;;;;21.07;28.43;101965.41;2197531;39;115400;-57
2021/04/07 00:02:54;;;;;;;;;;;;;;;21.07;28.28;101965.41;2203704;39;113767;-58
2021/04/07 00:04:26;;;;;;;;;;;;;;;21.03;28.46;101965.09;2200758;39;113871;-57
2021/04/07 00:06:02;;;;;;;;;;;;;;;21.04;28.12;101963.97;2207532;39;113802;-55
2021/04/07 00:07:33;;;;;;;;;;;;;;;21.03;28.19;101967.91;2201720;39;113955;-57
2021/04/07 00:09:04;;;;;;;;;;;;;;;21.01;28.74;101964.56;2205902;39;113844;-56
2021/04/07 00:10:37;;;;;;;;;;;;;;;21.02;28.27;101962.59;2204489;39;113940;-58
2021/04/07 00:12:08;;;;;;;;;;;;;;;20.99;28.74;101961.19;2209980;39;114290;-56
2021/04/07 00:13:39;;;;;;;;;;;;;;;20.97;28.62;101957.00;2195927;39;113580;-57
2021/04/07 00:15:12;;;;;;;;;;;;;;;20.94;28.67;101957.59;2203676;39;113918;-55
2021/04/07 00:16:43;;;;;;;;;;;;;;;20.92;28.63;101966.28;2205768;39;113720;-57
2021/04/07 00:18:14;;;;;;;;;;;;;;;20.91;28.96;101963.75;2193495;39;114387;-57
2021/04/07 00:19:45;;;;;;;;;;;;;;;20.90;28.84;101960.09;2203341;39;113810;-57
2021/04/07 00:21:17;;;;;;;;;;;;;;;20.89;28.72;101960.41;2208462;39;114161;-59
2021/04/07 00:22:48;;;;;;;;;;;;;;;20.89;28.79;101966.03;2207917;39;113695;-59
2021/04/07 00:24:19;;;;;;;;;;;;;;;20.88;28.96;101961.53;2210921;39;113913;-59
2021/04/07 00:25:50;;;;;;;;;;;;;;;20.87;28.87;101963.50;2206297;39;114345;-56
2021/04/07 00:27:27;;;;;;;;;;;;;;;20.84;28.94;101967.72;2195595;39;114737;-57
2021/04/07 00:28:58;;;;;;;;;;;;;;;20.82;28.93;101958.72;2202970;39;115278;-58
2021/04/07 00:30:30;;;;;;;;;;;;;;;20.80;29.02;101960.97;2210158;39;114883;-57
2021/04/07 00:32:01;;;;;;;;;;;;;;;20.79;29.35;101961.28;2208623;39;114941;-57
2021/04/07 00:33:36;;;;;;;;;;;;;;;20.79;29.25;101970.56;2202025;39;113644;-59
2021/04/07 00:35:30;;;;;;;;;;;;;;;20.76;29.06;101962.66;2204069;39;115186;-58
2021/04/07 00:37:02;;;;;;;;;;;;;;;20.75;29.26;101966.63;2206584;39;114877;-57
2021/04/07 00:38:33;;;;;;;;;;;;;;;20.75;29.26;101965.78;2196335;39;113995;-59
2021/04/07 00:40:05;;;;;;;;;;;;;;;20.73;29.51;101968.88;2204507;39;115577;-58
2021/04/07 00:41:37;;;;;;;;;;;;;;;20.72;29.22;101971.94;2205759;39;114992;-57
2021/04/07 00:43:09;;;;;;;;;;;;;;;20.70;29.67;101969.44;2196235;39;115038;-58
2021/04/07 00:44:40;;;;;;;;;;;;;;;20.69;29.74;101970.56;2193751;39;116077;-56
2021/04/07 00:46:11;;;;;;;;;;;;;;;20.67;29.53;101970.00;2210392;39;115153;-59
2021/04/07 00:47:57;;;;;;;;;;;;;;;20.66;29.39;101979.56;2196273;39;114286;-57
2021/04/07 00:49:29;;;;;;;;;;;;;;;20.66;29.67;101973.97;2203085;39;115938;-57
2021/04/07 00:51:00;;;;;;;;;;;;;;;20.64;29.51;101980.97;2204217;39;116028;-57
2021/04/07 00:52:31;;;;;;;;;;;;;;;20.63;29.64;101974.50;2197577;39;115259;-58
2021/04/07 00:54:02;;;;;;;;;;;;;;;20.62;29.74;101972.00;2205576;39;115092;-57
2021/04/07 00:55:35;;;;;;;;;;;;;;;20.60;29.80;101969.47;2204210;39;116366;-58
2021/04/07 00:57:06;;;;;;;;;;;;;;;20.59;30.01;101972.56;2208562;39;115605;-58
2021/04/07 00:58:38;;;;;;;;;;;;;;;20.57;29.81;101964.44;2200702;39;115495;-60
2021/04/07 01:00:10;;;;;;;;;;;;;;;20.57;30.04;101958.81;2206836;39;117581;-59
2021/04/07 01:01:42;;;;;;;;;;;;;;;20.56;29.87;101957.13;2198476;39;115658;-57
2021/04/07 01:03:14;;;;;;;;;;;;;;;20.54;30.10;101955.72;2205822;39;115960;-59
2021/04/07 01:04:46;;;;;;;;;;;;;;;20.51;29.94;101964.72;2197473;39;116353;-60
2021/04/07 01:06:17;;;;;;;;;;;;;;;20.50;30.13;101963.03;2195585;39;115486;-59
2021/04/07 01:07:49;;;;;;;;;;;;;;;20.49;30.14;101964.97;2196975;39;114691;-60
2021/04/07 01:09:20;;;;;;;;;;;;;;;20.47;30.26;101972.88;2195708;39;114096;-60
2021/04/07 01:10:52;;;;;;;;;;;;;;;20.46;30.46;101968.38;2202709;39;113755;-58
2021/04/07 01:12:23;;;;;;;;;;;;;;;20.46;30.19;101971.19;2202739;39;114516;-57
2021/04/07 01:13:55;;;;;;;;;;;;;;;20.45;30.01;101965.84;2197107;39;113910;-58
2021/04/07 01:15:31;;;;;;;;;;;;;;;20.42;30.34;101972.88;2202325;39;113743;-58
2021/04/07 01:17:03;;;;;;;;;;;;;;;20.41;30.46;101974.84;2200002;39;113884;-59
2021/04/07 01:18:35;;;;;;;;;;;;;;;20.42;30.37;101967.25;2197792;39;113768;-57
2021/04/07 01:20:08;;;;;;;;;;;;;;;20.39;30.27;101968.69;2200679;39;113657;-59
2021/04/07 01:21:42;;;;;;;;;;;;;;;20.38;30.37;101968.94;2200551;39;113858;-57
2021/04/07 01:23:14;;;;;;;;;;;;;;;20.37;30.37;101970.91;2200904;39;114169;-61
2021/04/07 01:24:45;;;;;;;;;;;;;;;20.35;30.39;101967.53;2195586;39;114202;-57
2021/04/07 01:26:16;;;;;;;;;;;;;;;20.36;30.68;101968.38;2198767;39;114170;-57
2021/04/07 01:27:52;;;;;;;;;;;;;;;20.34;30.71;101965.88;2198307;39;114005;-59
2021/04/07 01:29:23;;;;;;;;;;;;;;;20.31;30.49;101962.75;2198334;39;113973;-56
2021/04/07 01:30:55;;;;;;;;;;;;;;;20.30;30.80;101969.53;2196726;39;116331;-58
2021/04/07 01:32:26;;;;;;;;;;;;;;;20.30;30.34;101959.16;2194598;39;115572;-58
2021/04/07 01:33:57;;;;;;;;;;;;;;;20.27;30.42;101956.84;2201080;39;115124;-57
2021/04/07 01:35:29;;;;;;;;;;;;;;;20.26;30.82;101959.97;2202013;39;114844;-58
2021/04/07 01:37:00;;;;;;;;;;;;;;;20.25;30.83;101963.88;2200243;39;114773;-59
2021/04/07 01:38:32;;;;;;;;;;;;;;;20.25;30.80;101963.88;2193161;39;115292;-58
2021/04/07 01:40:05;;;;;;;;;;;;;;;20.25;30.58;101961.06;2197067;39;114803;-57
2021/04/07 01:41:37;;;;;;;;;;;;;;;20.21;30.79;101963.59;2198129;39;114866;-56
2021/04/07 01:43:09;;;;;;;;;;;;;;;20.23;30.96;101960.50;2197337;39;114943;-58
2021/04/07 01:44:41;;;;;;;;;;;;;;;20.21;31.00;101965.56;2196563;39;114894;-56
2021/04/07 01:46:12;;;;;;;;;;;;;;;20.20;30.98;101966.69;2196125;39;114034;-57
2021/04/07 01:47:44;;;;;;;;;;;;;;;20.17;30.80;101964.47;2198184;39;114872;-58
2021/04/07 01:49:16;;;;;;;;;;;;;;;20.18;30.64;101971.72;2201920;39;115123;-56
2021/04/07 01:50:48;;;;;;;;;;;;;;;20.15;30.95;101963.88;2197378;39;114782;-58
2021/04/07 01:52:20;;;;;;;;;;;;;;;20.13;30.83;101964.16;2202236;39;115243;-60
2021/04/07 01:53:57;;;;;;;;;;;;;;;20.13;31.11;101968.91;2199144;39;116405;-59
2021/04/07 01:55:28;;;;;;;;;;;;;;;20.12;30.96;101968.09;2194856;39;115606;-57
2021/04/07 01:57:00;;;;;;;;;;;;;;;20.14;30.92;101959.38;2196094;39;115569;-57
2021/04/07 01:58:31;;;;;;;;;;;;;;;20.11;31.07;101960.81;2197536;39;117103;-57
2021/04/07 02:00:04;;;;;;;;;;;;;;;20.09;30.98;101967.78;2197587;39;116167;-56
2021/04/07 02:01:37;;;;;;;;;;;;;;;20.07;31.19;101962.50;2199169;39;115636;-58
2021/04/07 02:03:08;;;;;;;;;;;;;;;20.09;31.29;101967.78;2197657;39;114696;-57
2021/04/07 02:04:39;;;;;;;;;;;;;;;20.07;30.98;101961.63;2197395;39;115344;-57
2021/04/07 02:06:11;;;;;;;;;;;;;;;20.06;31.27;101971.19;2200872;39;116600;-59
2021/04/07 02:07:42;;;;;;;;;;;;;;;20.03;31.05;101969.78;2198246;39;115713;-58
2021/04/07 02:09:14;;;;;;;;;;;;;;;20.03;30.93;101961.38;2199643;39;117599;-57
2021/04/07 02:10:45;;;;;;;;;;;;;;;20.03;31.41;101968.94;2196344;39;115951;-58
2021/04/07 02:12:20;;;;;;;;;;;;;;;20.02;31.11;101968.09;2196784;39;114539;-57
2021/04/07 02:13:51;;;;;;;;;;;;;;;20.00;31.26;101975.94;2200268;39;114689;-56
2021/04/07 02:15:23;;;;;;;;;;;;;;;19.98;31.14;101970.63;2202305;39;113737;-59
2021/04/07 02:16:55;;;;;;;;;;;;;;;19.99;31.13;101974.25;2196460;39;113857;-57
2021/04/07 02:18:27;;;;;;;;;;;;;;;19.98;31.36;101973.44;2201853;39;115810;-57
2021/04/07 02:19:58;;;;;;;;;;;;;;;19.98;31.45;101972.59;2201486;39;113786;-58
2021/04/07 02:21:29;;;;;;;;;;;;;;;19.95;31.62;101973.13;2199297;39;113967;-57
2021/04/07 02:23:01;;;;;;;;;;;;;;;19.92;31.47;101971.72;2198119;39;113659;-58
2021/04/07 02:24:32;;;;;;;;;;;;;;;19.93;31.51;101967.81;2198001;39;113766;-57
2021/04/07 02:26:04;;;;;;;;;;;;;;;19.93;31.36;101962.22;2197955;39;113892;-56
2021/04/07 02:27:36;;;;;;;;;;;;;;;19.94;31.37;101963.03;2197897;39;113897;-58
2021/04/07 02:29:07;;;;;;;;;;;;;;;19.91;31.71;101967.25;2199517;39;113662;-57
2021/04/07 02:30:38;;;;;;;;;;;;;;;19.90;31.54;101968.34;2201352;39;113822;-57
2021/04/07 02:32:10;;;;;;;;;;;;;;;19.88;31.77;101964.16;2198582;39;113775;-56
2021/04/07 02:33:41;;;;;;;;;;;;;;;19.87;31.57;101963.31;2198306;39;113967;-57
2021/04/07 02:35:12;;;;;;;;;;;;;;;19.86;31.66;101960.78;2199683;39;113666;-58
2021/04/07 02:36:44;;;;;;;;;;;;;;;19.86;31.45;101966.38;2196709;39;114920;-59
2021/04/07 02:38:15;;;;;;;;;;;;;;;19.86;31.82;101966.38;2199994;39;114831;-58
2021/04/07 02:39:46;;;;;;;;;;;;;;;19.84;31.76;101963.88;2197679;39;114046;-56
2021/04/07 02:41:17;;;;;;;;;;;;;;;19.83;31.66;101962.19;2198329;39;115185;-58
2021/04/07 02:42:48;;;;;;;;;;;;;;;19.80;31.98;101968.38;2197840;39;114930;-59
2021/04/07 02:44:20;;;;;;;;;;;;;;;19.82;31.87;101962.47;2199650;39;115217;-58
2021/04/07 02:45:51;;;;;;;;;;;;;;;19.80;31.71;101965.56;2195482;39;114715;-57
2021/04/07 02:47:22;;;;;;;;;;;;;;;19.77;32.16;101968.91;2194717;39;114465;-57
2021/04/07 02:48:53;;;;;;;;;;;;;;;19.79;32.25;101969.47;2200528;39;115147;-58
2021/04/07 02:50:25;;;;;;;;;;;;;;;19.78;32.22;101970.59;2194774;39;114825;-57
2021/04/07 02:51:56;;;;;;;;;;;;;;;19.79;32.32;101963.88;2198456;39;115002;-58
2021/04/07 02:53:27;;;;;;;;;;;;;;;19.76;32.00;101967.22;2197110;39;115207;-59
2021/04/07 02:54:58;;;;;;;;;;;;;;;19.77;32.29;101970.84;2198005;39;116800;-56
2021/04/07 02:56:30;;;;;;;;;;;;;;;19.74;32.10;101968.63;2202760;39;114858;-58
2021/04/07 02:58:01;;;;;;;;;;;;;;;19.73;32.21;101972.53;2196705;39;117940;-58
2021/04/07 02:59:33;;;;;;;;;;;;;;;19.75;32.01;101975.94;2201864;39;115703;-58
2021/04/07 03:01:04;;;;;;;;;;;;;;;19.74;32.35;101977.03;2202412;39;115517;-60
2021/04/07 03:02:35;;;;;;;;;;;;;;;19.73;32.14;101981.78;2199457;39;115616;-58
2021/04/07 03:04:07;;;;;;;;;;;;;;;19.69;31.93;101977.88;2202493;39;116399;-58
2021/04/07 03:05:38;;;;;;;;;;;;;;;19.69;32.32;101980.69;2203507;39;116342;-59
2021/04/07 03:07:09;;;;;;;;;;;;;;;19.67;32.28;101988.50;2204747;39;115865;-57
2021/04/07 03:08:40;;;;;;;;;;;;;;;19.67;32.21;101977.28;2204767;39;115685;-59
2021/04/07 03:10:13;;;;;;;;;;;;;;;19.65;32.27;101985.16;2203519;39;115519;-58
2021/04/07 03:11:44;;;;;;;;;;;;;;;19.65;32.17;101987.97;2203824;39;115910;-60
2021/04/07 03:13:15;;;;;;;;;;;;;;;19.64;32.26;101988.22;2204858;39;116005;-59
2021/04/07 03:14:46;;;;;;;;;;;;;;;19.60;32.58;101987.09;2203824;39;114649;-58
2021/04/07 03:16:17;;;;;;;;;;;;;;;19.58;32.42;101984.56;2197864;39;115483;-59
2021/04/07 03:17:49;;;;;;;;;;;;;;;19.59;32.47;101986.25;2200222;39;115558;-59
2021/04/07 03:19:20;;;;;;;;;;;;;;;19.59;32.46;101986.25;2200966;39;116424;-57
2021/04/07 03:20:51;;;;;;;;;;;;;;;19.60;32.42;101987.94;2204364;39;113681;-59
2021/04/07 03:22:22;;;;;;;;;;;;;;;19.58;32.50;101983.75;2204076;39;113924;-56
2021/04/07 03:23:54;;;;;;;;;;;;;;;19.59;32.43;101985.41;2200373;39;113748;-59
2021/04/07 03:25:25;;;;;;;;;;;;;;;19.58;32.35;101981.75;2205090;39;113905;-59
2021/04/07 03:26:56;;;;;;;;;;;;;;;19.59;32.45;101985.41;2204836;39;114180;-57
2021/04/07 03:28:27;;;;;;;;;;;;;;;19.58;32.55;101997.75;2204959;39;113625;-58
2021/04/07 03:30:00;;;;;;;;;;;;;;;19.53;32.57;101992.97;2203961;39;113736;-57
2021/04/07 03:31:31;;;;;;;;;;;;;;;19.51;32.60;101981.19;2204684;39;113819;-58
2021/04/07 03:33:02;;;;;;;;;;;;;;;19.53;33.04;101987.38;2198485;39;113775;-56
2021/04/07 03:34:33;;;;;;;;;;;;;;;19.52;32.79;101988.50;2203182;39;113719;-57
2021/04/07 03:36:05;;;;;;;;;;;;;;;19.51;32.83;101990.44;2203408;39;113831;-58
2021/04/07 03:37:37;;;;;;;;;;;;;;;19.50;32.72;101993.53;2204523;39;113644;-56
2021/04/07 03:39:08;;;;;;;;;;;;;;;19.49;32.85;101989.03;2201153;39;113840;-57
2021/04/07 03:40:39;;;;;;;;;;;;;;;19.49;32.64;101989.88;2202740;39;114224;-57
2021/04/07 03:42:10;;;;;;;;;;;;;;;19.48;33.00;101990.16;2206793;39;114848;-56
2021/04/07 03:43:41;;;;;;;;;;;;;;;19.45;32.81;101987.91;2204949;39;115220;-56
2021/04/07 03:45:13;;;;;;;;;;;;;;;19.47;32.55;101989.31;2204141;39;114140;-58
2021/04/07 03:46:44;;;;;;;;;;;;;;;19.46;32.46;101995.19;2202804;39;114854;-57
2021/04/07 03:48:16;;;;;;;;;;;;;;;19.45;32.76;101987.91;2202747;39;114925;-56
2021/04/07 03:49:47;;;;;;;;;;;;;;;19.42;32.80;101988.41;2197475;39;115176;-55
2021/04/07 03:51:18;;;;;;;;;;;;;;;19.41;32.63;101989.53;2195031;39;114827;-56
2021/04/07 03:52:49;;;;;;;;;;;;;;;19.39;32.76;101987.03;2199291;39;114777;-58
2021/04/07 03:54:23;;;;;;;;;;;;;;;19.42;32.65;101992.06;2204481;39;114788;-58
2021/04/07 03:55:56;;;;;;;;;;;;;;;19.44;32.90;101989.84;2195364;39;114918;-57
2021/04/07 03:57:28;;;;;;;;;;;;;;;19.47;33.15;101994.06;2194612;39;114819;-57
2021/04/07 03:58:59;;;;;;;;;;;;;;;19.50;32.99;101993.53;2199740;39;115354;-57
2021/04/07 04:00:30;;;;;;;;;;;;;;;19.54;33.23;101994.66;2207490;39;114802;-58
2021/04/07 04:02:01;;;;;;;;;;;;;;;19.56;33.13;101995.22;2207013;39;114882;-58
2021/04/07 04:03:32;;;;;;;;;;;;;;;19.55;33.11;101996.34;2204320;39;115567;-57
2021/04/07 04:05:04;;;;;;;;;;;;;;;19.56;33.44;101997.19;2204822;39;115582;-57
2021/04/07 04:06:35;;;;;;;;;;;;;;;19.59;33.41;101996.63;2199193;39;115907;-58
2021/04/07 04:08:07;;;;;;;;;;;;;;;19.61;33.14;101991.59;2204117;39;115537;-57
2021/04/07 04:09:38;;;;;;;;;;;;;;;19.64;33.23;101994.69;2204671;39;115460;-56
2021/04/07 04:11:09;;;;;;;;;;;;;;;19.67;33.22;102001.72;2204913;39;115626;-58
2021/04/07 04:12:40;;;;;;;;;;;;;;;19.69;32.90;101994.69;2207603;39;115768;-60
2021/04/07 04:14:11;;;;;;;;;;;;;;;19.72;33.12;102001.69;2205655;39;115596;-56
2021/04/07 04:15:45;;;;;;;;;;;;;;;19.75;33.24;102001.16;2208444;39;115598;-56
2021/04/07 04:17:16;;;;;;;;;;;;;;;19.78;33.39;102000.59;2198044;39;116135;-58
2021/04/07 04:18:49;;;;;;;;;;;;;;;19.81;33.20;102005.63;2203480;39;114498;-57
2021/04/07 04:20:20;;;;;;;;;;;;;;;19.84;33.67;102011.56;2202134;39;115536;-55
2021/04/07 04:21:53;;;;;;;;;;;;;;;19.88;33.63;101998.66;2201957;39;115518;-58
2021/04/07 04:23:24;;;;;;;;;;;;;;;19.90;33.57;102004.81;2206003;39;114513;-59
2021/04/07 04:24:55;;;;;;;;;;;;;;;19.94;33.82;102005.94;2205212;39;113919;-58
2021/04/07 04:26:26;;;;;;;;;;;;;;;20.00;34.05;102009.59;2204926;39;113820;-59
2021/04/07 04:27:57;;;;;;;;;;;;;;;20.04;33.96;102002.31;2205131;39;114226;-59
2021/04/07 04:29:28;;;;;;;;;;;;;;;20.08;33.97;102008.22;2204301;39;113829;-56
2021/04/07 04:31:00;;;;;;;;;;;;;;;20.11;34.15;102005.69;2197746;39;113917;-57
2021/04/07 04:32:31;;;;;;;;;;;;;;;20.16;34.07;102008.50;2204004;39;113646;-58
2021/04/07 04:34:02;;;;;;;;;;;;;;;20.19;33.63;102010.75;2195669;39;113987;-57
2021/04/07 04:35:33;;;;;;;;;;;;;;;20.24;33.67;102009.91;2202741;39;113972;-58
2021/04/07 04:37:04;;;;;;;;;;;;;;;20.28;33.74;102011.00;2203411;39;113981;-56
2021/04/07 04:38:35;;;;;;;;;;;;;;;20.31;33.75;102016.09;2203737;39;113707;-56
2021/04/07 04:40:08;;;;;;;;;;;;;;;20.35;33.90;102015.25;2204765;39;113903;-57
2021/04/07 04:41:39;;;;;;;;;;;;;;;20.40;34.01;102015.25;2203962;39;113972;-58
2021/04/07 04:43:10;;;;;;;;;;;;;;;20.45;34.14;102016.38;2204393;39;113864;-58
2021/04/07 04:44:41;;;;;;;;;;;;;;;20.48;33.88;102021.44;2206297;39;113725;-57
2021/04/07 04:46:12;;;;;;;;;;;;;;;20.53;34.22;102013.00;2204216;39;114873;-58
2021/04/07 04:47:44;;;;;;;;;;;;;;;20.56;33.74;102018.91;2199935;39;114849;-59
2021/04/07 04:49:15;;;;;;;;;;;;;;;20.59;33.84;102015.50;2205667;39;115198;-58
2021/04/07 04:50:46;;;;;;;;;;;;;;;20.64;33.70;102025.91;2200495;39;114964;-59
2021/04/07 04:52:19;;;;;;;;;;;;;;;20.67;34.25;102020.56;2203017;39;114950;-56
2021/04/07 04:53:50;;;;;;;;;;;;;;;20.70;34.14;102020.00;2205608;39;114828;-56
2021/04/07 04:55:21;;;;;;;;;;;;;;;20.75;33.72;102016.34;2204096;39;114725;-58
2021/04/07 04:56:52;;;;;;;;;;;;;;;20.77;33.95;102017.72;2203878;39;114715;-57
2021/04/07 04:58:24;;;;;;;;;;;;;;;20.81;33.78;102023.63;2204857;39;114812;-58
2021/04/07 05:00:00;;;;;;;;;;;;;;;20.83;34.00;102030.66;2204439;39;114671;-59
2021/04/07 05:01:31;;;;;;;;;;;;;;;20.87;34.05;102025.28;2204134;39;114800;-58
2021/04/07 05:03:02;;;;;;;;;;;;;;;20.91;33.95;102029.22;2197519;39;114214;-56
2021/04/07 05:04:33;;;;;;;;;;;;;;;20.94;33.87;102031.44;2201731;39;114787;-56
2021/04/07 05:06:04;;;;;;;;;;;;;;;20.99;34.29;102036.22;2207418;39;115815;-59
2021/04/07 05:07:36;;;;;;;;;;;;;;;21.02;33.60;102033.69;2203670;39;116431;-58
2021/04/07 05:09:07;;;;;;;;;;;;;;;21.05;33.60;102035.06;2204431;39;115641;-59
2021/04/07 05:10:38;;;;;;;;;;;;;;;21.08;33.21;102037.31;2205265;39;115468;-58
2021/04/07 05:12:09;;;;;;;;;;;;;;;21.11;32.92;102031.13;2204017;39;115935;-58
2021/04/07 05:13:40;;;;;;;;;;;;;;;21.14;33.26;102027.78;2204735;39;115590;-59
2021/04/07 05:15:11;;;;;;;;;;;;;;;21.17;33.18;102032.81;2204231;39;115346;-59
2021/04/07 05:16:43;;;;;;;;;;;;;;;21.20;33.09;102038.72;2203099;39;115918;-56
2021/04/07 05:18:15;;;;;;;;;;;;;;;21.24;33.01;102036.19;2197580;39;115593;-59
2021/04/07 05:19:46;;;;;;;;;;;;;;;21.26;33.32;102040.38;2202898;39;115714;-58
2021/04/07 05:21:20;;;;;;;;;;;;;;;21.30;32.77;102040.66;2203105;39;115753;-59
2021/04/07 05:22:51;;;;;;;;;;;;;;;21.32;33.10;102034.72;2205027;39;115541;-58
2021/04/07 05:24:22;;;;;;;;;;;;;;;21.36;33.04;102041.47;2206373;39;115404;-56
2021/04/07 05:25:53;;;;;;;;;;;;;;;21.40;32.70;102048.19;2202929;39;115541;-57
2021/04/07 05:27:24;;;;;;;;;;;;;;;21.41;32.90;102050.72;2200687;39;116134;-58
2021/04/07 05:28:56;;;;;;;;;;;;;;;21.44;32.87;102050.13;2210251;39;115511;-57
2021/04/07 05:30:27;;;;;;;;;;;;;;;21.47;32.60;102043.97;2200076;39;113798;-57
2021/04/07 05:31:58;;;;;;;;;;;;;;;21.50;32.87;102045.34;2204213;39;114246;-58
2021/04/07 05:33:30;;;;;;;;;;;;;;;21.52;32.82;102045.91;2201849;39;113842;-57
2021/04/07 05:35:02;;;;;;;;;;;;;;;21.54;32.40;102052.91;2203915;39;115239;-58
2021/04/07 05:36:33;;;;;;;;;;;;;;;21.56;32.70;102056.28;2202805;39;113989;-57
2021/04/07 05:38:04;;;;;;;;;;;;;;;21.61;32.59;102058.22;2203647;39;113725;-58
2021/04/07 05:39:36;;;;;;;;;;;;;;;21.62;32.46;102055.09;2199322;39;113766;-59
2021/04/07 05:41:07;;;;;;;;;;;;;;;21.64;32.24;102055.69;2204398;39;113966;-57
2021/04/07 05:42:38;;;;;;;;;;;;;;;21.65;32.35;102054.56;2194193;39;113990;-60
2021/04/07 05:44:09;;;;;;;;;;;;;;;21.68;32.62;102053.97;2193559;39;114068;-57
2021/04/07 05:45:41;;;;;;;;;;;;;;;21.70;32.28;102054.53;2198556;39;113656;-59
2021/04/07 05:47:12;;;;;;;;;;;;;;;21.72;32.33;102057.88;2205953;39;113831;-57
2021/04/07 05:48:43;;;;;;;;;;;;;;;21.77;32.52;102056.16;2206177;39;113898;-56
2021/04/07 05:50:15;;;;;;;;;;;;;;;21.80;32.97;102052.78;2206655;39;113933;-58
2021/04/07 05:51:46;;;;;;;;;;;;;;;21.82;32.80;102053.31;2207893;39;115002;-56
2021/04/07 05:53:18;;;;;;;;;;;;;;;21.83;32.46;102060.63;2208601;39;114866;-59
2021/04/07 05:54:49;;;;;;;;;;;;;;;21.84;32.93;102053.88;2191304;39;115053;-56
2021/04/07 05:56:20;;;;;;;;;;;;;;;21.86;32.42;102054.41;2201079;39;114881;-55
2021/04/07 05:57:55;;;;;;;;;;;;;;;21.87;32.58;102062.59;2202589;39;115275;-57
2021/04/07 05:59:26;;;;;;;;;;;;;;;21.90;32.43;102066.78;2196568;39;115591;-57
2021/04/07 06:00:57;;;;;;;;;;;;;;;21.91;32.59;102063.69;2199022;39;114780;-57
2021/04/07 06:02:29;;;;;;;;;;;;;;;21.94;32.51;102067.94;2205646;39;114931;-56
2021/04/07 06:04:00;;;;;;;;;;;;;;;21.96;32.25;102065.66;2203203;39;114681;-56
2021/04/07 06:05:31;;;;;;;;;;;;;;;21.98;32.37;102063.41;2202696;39;114879;-57
2021/04/07 06:07:02;;;;;;;;;;;;;;;22.00;32.17;102072.38;2201394;39;115375;-58
2021/04/07 06:08:34;;;;;;;;;;;;;;;22.03;32.03;102069.00;2204865;39;114899;-58
2021/04/07 06:10:06;;;;;;;;;;;;;;;22.04;32.16;102082.75;2198671;39;115389;-58
2021/04/07 06:11:37;;;;;;;;;;;;;;;22.06;31.92;102079.66;2206153;39;114827;-57
2021/04/07 06:13:09;;;;;;;;;;;;;;;22.08;32.32;102081.03;2204580;39;115648;-56
2021/04/07 06:14:40;;;;;;;;;;;;;;;22.09;32.11;102079.06;2199137;39;115995;-56
2021/04/07 06:16:13;;;;;;;;;;;;;;;22.11;32.01;102079.63;2197784;39;115612;-55
2021/04/07 06:19:25;;;;;;;;;;;;;;;22.14;32.13;102079.88;2197418;39;115370;-57
2021/04/07 06:20:56;;;;;;;;;;;;;;;22.17;32.08;102081.25;2203711;39;115500;-58
2021/04/07 06:22:27;;;;;;;;;;;;;;;22.17;32.07;102084.94;2204838;39;115561;-58
2021/04/07 06:23:58;;;;;;;;;;;;;;;22.20;32.04;102097.59;2192647;39;115600;-57
2021/04/07 06:25:30;;;;;;;;;;;;;;;22.21;31.97;102090.84;2204548;39;115842;-58
2021/04/07 06:27:01;;;;;;;;;;;;;;;22.24;32.03;102090.25;2204863;39;115271;-56
2021/04/07 06:28:32;;;;;;;;;;;;;;;22.25;31.78;102091.94;2195277;39;115465;-57
2021/04/07 06:30:04;;;;;;;;;;;;;;;22.27;31.94;102086.84;2200431;39;115535;-59
2021/04/07 06:31:35;;;;;;;;;;;;;;;22.28;31.75;102091.34;2196594;39;114344;-59
2021/04/07 06:33:16;;;;;;;;;;;;;;;22.30;32.18;102093.88;2204122;39;114682;-58
2021/04/07 06:34:47;;;;;;;;;;;;;;;22.32;32.17;102095.25;2205469;39;114074;-57
2021/04/07 06:36:18;;;;;;;;;;;;;;;22.33;31.79;102094.13;2206278;39;113806;-58
2021/04/07 06:37:49;;;;;;;;;;;;;;;22.35;31.96;102103.09;2203642;39;114039;-58
2021/04/07 06:39:21;;;;;;;;;;;;;;;22.36;31.68;102104.78;2205184;39;113711;-57
2021/04/07 06:40:52;;;;;;;;;;;;;;;22.38;31.95;102102.53;2204312;39;113804;-57
2021/04/07 06:42:23;;;;;;;;;;;;;;;22.40;31.73;102105.88;2204831;39;113966;-58
2021/04/07 06:43:56;;;;;;;;;;;;;;;22.41;31.55;102101.94;2204909;39;113822;-58
2021/04/07 06:45:28;;;;;;;;;;;;;;;22.42;31.62;102099.97;2198387;39;113816;-56
2021/04/07 06:47:01;;;;;;;;;;;;;;;22.43;31.58;102105.31;2204934;39;114022;-57
2021/04/07 06:48:32;;;;;;;;;;;;;;;22.45;31.67;102105.00;2202323;39;113766;-57
2021/04/07 06:50:04;;;;;;;;;;;;;;;22.47;31.64;102108.38;2203137;39;113833;-58
2021/04/07 06:51:35;;;;;;;;;;;;;;;22.47;31.59;102117.66;2203389;39;113877;-57
2021/04/07 06:53:08;;;;;;;;;;;;;;;22.49;31.30;102111.72;2203391;39;113746;-56
2021/04/07 06:54:40;;;;;;;;;;;;;;;22.52;31.60;102111.16;2204382;39;113790;-55
2021/04/07 06:56:13;;;;;;;;;;;;;;;22.52;31.76;102108.34;2206582;39;113676;-57
2021/04/07 06:57:45;;;;;;;;;;;;;;;22.54;31.67;102109.72;2204063;39;114557;-59
2021/04/07 06:59:16;;;;;;;;;;;;;;;22.56;31.48;102113.09;2207014;39;114832;-55
2021/04/07 07:00:47;;;;;;;;;;;;;;;22.58;31.90;102110.81;2204998;39;114336;-59
2021/04/07 07:02:19;;;;;;;;;;;;;;;22.59;32.02;102120.94;2197793;39;114850;-57
2021/04/07 07:03:51;;;;;;;;;;;;;;;22.61;31.74;102115.03;2203998;39;114839;-58
2021/04/07 07:05:22;;;;;;;;;;;;;;;22.62;31.66;102120.34;2202046;39;115078;-58
2021/04/07 07:06:53;;;;;;;;;;;;;;;22.64;31.70;102125.69;2203285;39;114801;-59
2021/04/07 07:08:24;;;;;;;;;;;;;;;22.67;31.50;102118.66;2196354;39;114898;-56
2021/04/07 07:09:56;;;;;;;;;;;;;;;22.67;31.64;102125.09;2202027;39;114623;-56
2021/04/07 07:11:28;;;;;;;;;;;;;;;22.69;31.55;102117.19;2196319;39;115351;-59
2021/04/07 07:12:59;;;;;;;;;;;;;;;22.71;31.50;102123.44;2197795;39;114727;-56
2021/04/07 07:14:31;;;;;;;;;;;;;;;22.71;31.55;102123.44;2206568;39;114842;-56
2021/04/07 07:16:03;;;;;;;;;;;;;;;22.72;31.41;102119.44;2204716;39;114969;-57
2021/04/07 07:17:35;;;;;;;;;;;;;;;22.72;31.53;102124.25;2206254;39;114782;-56
2021/04/07 07:19:06;;;;;;;;;;;;;;;22.73;31.38;102125.94;2204901;39;116100;-59
2021/04/07 07:20:39;;;;;;;;;;;;;;;22.73;31.45;102131.56;2205843;39;115624;-58
2021/04/07 07:22:10;;;;;;;;;;;;;;;22.73;31.67;102135.22;2201260;39;116033;-57
2021/04/07 07:23:43;;;;;;;;;;;;;;;22.73;31.23;102134.38;2205610;39;116339;-55
2021/04/07 07:25:16;;;;;;;;;;;;;;;22.71;31.54;102129.06;2201579;39;115899;-57
2021/04/07 07:26:48;;;;;;;;;;;;;;;22.72;31.48;102129.88;2204160;39;115464;-56
2021/04/07 07:28:19;;;;;;;;;;;;;;;22.71;31.53;102136.69;2203669;39;116223;-58
2021/04/07 07:29:55;;;;;;;;;;;;;;;22.70;31.35;102132.16;2201948;39;115885;-58
2021/04/07 07:31:30;;;;;;;;;;;;;;;22.70;31.89;102138.66;2197383;39;115889;-57
2021/04/07 07:33:12;;;;;;;;;;;;;;;22.68;31.74;102129.59;2193932;39;115997;-59
2021/04/07 07:34:43;;;;;;;;;;;;;;;22.67;31.92;102130.72;2202668;39;115585;-58
2021/04/07 07:36:14;;;;;;;;;;;;;;;22.67;31.93;102132.72;2205563;39;114849;-58
2021/04/07 07:37:46;;;;;;;;;;;;;;;22.64;31.85;102131.34;2206041;39;115558;-58
2021/04/07 07:39:23;;;;;;;;;;;;;;;22.62;32.15;102128.78;2208019;39;114721;-57
2021/04/07 07:40:58;;;;;;;;;;;;;;;22.60;31.87;102127.41;2194277;39;113753;-58
2021/04/07 07:42:30;;;;;;;;;;;;;;;22.60;32.07;102133.91;2197616;39;113881;-58
2021/04/07 07:44:02;;;;;;;;;;;;;;;22.59;31.97;102128.56;2202670;39;113654;-57
2021/04/07 07:45:44;;;;;;;;;;;;;;;22.58;32.23;102133.34;2191481;39;114466;-56
2021/04/07 07:48:47;;;;;;;;;;;;;;;22.57;32.19;102130.84;2201465;39;113751;-57
2021/04/07 07:50:19;;;;;;;;;;;;;;;22.54;32.17;102123.78;2196923;39;114563;-58